Latest Weather Observations for Mount Gellibrand

IDV60801

Issued at 9:02 am EDT Monday 22 December 2014 (issued every 30 minutes, with the page automatically refreshed every 10 minutes)

About weather observations | Map of weather stations | Latest weather observations for VIC | Other Formats
Station Details ID: 090035 Name: MOUNT GELLIBRAND Lat: -38.23 Lon: 143.79 Height: 261.0 m
Data from the previous 72 hours. | See also: Recent months at Mount Gellibrand
Date/Time
EDT
Temp
°C
App
Temp
°C
Dew
Point
Rel
Hum
%
Delta-T
°C
Wind Press
QNH
hPa
Press
MSL
hPa
Rain
since 9 am
mm
Dir
 
Spd
km/h
Gust
km/h
Spd
kts
Gust
kts
22/09:00am 15.4 11.0 12.9 85 1.4 ESE 28 33 15 18 1013.6 1013.0 0.0
22/08:30am 15.6 10.8 12.9 84 1.5 ESE 30 37 16 20 1013.4 1012.8 0.0
22/08:00am 14.7 9.3 12.9 89 1.0 ESE 33 41 18 22 1012.8 1012.2 0.0
22/07:30am 14.3 9.6 13.2 93 0.6 E 30 35 16 19 1012.9 1012.3 0.0
22/07:00am 13.9 9.9 13.1 95 0.4 E 26 32 14 17 1012.7 1012.1 0.0
22/06:30am 13.7 9.7 12.9 95 0.4 E 26 30 14 16 1012.5 1011.9 0.0
22/06:00am 13.7 10.4 12.7 94 0.6 ESE 22 26 12 14 1012.6 1012.0 0.0
22/05:30am 13.7 9.3 12.8 94 0.5 E 28 32 15 17 1012.3 1011.7 0.0
22/05:00am 13.6 10.3 12.8 95 0.4 E 22 28 12 15 1012.4 1011.8 0.0
22/04:30am 13.4 11.0 12.8 96 0.3 E 17 19 9 10 1012.7 1012.1 0.0
22/04:00am 13.4 11.4 12.6 95 0.4 E 15 17 8 9 1013.0 1012.4 0.0
22/03:30am 13.4 11.0 12.6 95 0.4 ESE 17 19 9 10 1013.3 1012.7 0.0
22/03:00am 13.5 10.7 12.7 95 0.4 ESE 19 24 10 13 1013.4 1012.8 0.0
22/02:30am 13.5 9.0 12.7 95 0.4 ESE 28 33 15 18 1013.4 1012.8 0.0
22/02:00am 13.2 8.6 12.4 95 0.4 E 28 33 15 18 1013.5 1012.9 0.0
22/01:30am 13.0 9.1 12.1 94 0.5 ENE 24 28 13 15 1013.9 1013.4 0.0
22/01:00am 13.3 10.1 12.0 92 0.7 ENE 20 24 11 13 1014.1 1013.6 0.0
22/12:30am 13.5 11.9 11.6 88 1.0 ENE 11 15 6 8 1014.4 1013.9 0.0
22/12:00am 14.2 12.6 11.5 84 1.5 E 11 13 6 7 1014.4 1013.9 0.0
 
Date/Time
EDT
Temp
°C
App
Temp
°C
Dew
Point
Rel
Hum
%
Delta-T
°C
Wind Press
QNH
hPa
Press
MSL
hPa
Rain
since 9 am
mm
Dir
 
Spd
km/h
Gust
km/h
Spd
kts
Gust
kts
21/11:30pm 14.9 13.5 10.9 77 2.1 ENE 9 11 5 6 1014.5 1014.0 0.0
21/11:00pm 15.7 14.0 9.8 68 3.1 ENE 9 13 5 7 1014.7 1014.2 0.0
21/10:30pm 17.2 14.3 8.1 55 4.7 E 13 15 7 8 1014.5 1014.0 0.0
21/10:00pm 18.0 13.9 8.0 52 5.2 SE 19 22 10 12 1014.3 1013.8 0.0
21/09:30pm 18.3 14.6 8.0 51 5.3 S 17 20 9 11 1013.8 1013.3 0.0
21/09:00pm 19.7 15.2 8.4 48 5.9 SSE 22 28 12 15 1013.6 1013.0 0.0
21/08:30pm 20.9 17.3 9.8 49 6.0 SE 19 24 10 13 1013.3 1012.7 0.0
21/08:00pm 23.2 20.7 10.9 46 6.9 E 15 20 8 11 1013.1 1012.5 0.0
21/07:30pm 25.1 23.4 11.3 42 7.9 E 11 17 6 9 1012.8 1012.2 0.0
21/07:00pm 26.9 25.9 11.0 37 9.1 SSE 7 13 4 7 1012.7 1012.1 0.0
21/06:30pm 26.6 24.0 11.9 40 8.5 ESE 17 22 9 12 1012.5 1011.9 0.0
21/06:00pm 26.9 24.6 11.8 39 8.8 E 15 20 8 11 1012.5 1011.9 0.0
21/05:30pm 28.0 24.4 12.0 37 9.4 E 22 30 12 16 1012.2 1011.6 0.0
21/05:00pm 27.5 25.4 12.3 39 8.9 E 15 22 8 12 1012.4 1011.8 0.0
21/04:30pm 27.2 24.2 12.4 40 8.7 E 20 26 11 14 1012.5 1011.9 0.0
21/04:00pm 27.6 22.8 11.6 37 9.3 ESE 28 37 15 20 1012.3 1011.7 0.0
21/03:30pm 32.0 26.5 10.7 27 12.4 SW 30 52 16 28 1012.2 1011.6 0.0
21/03:26pm 31.6 27.8 9.8 26 12.5 SW 20 52 11 28 1012.0 1011.4 0.0
21/03:00pm 31.2 26.9 7.0 22 13.3 W 19 30 10 16 1012.5 1011.9 0.0
21/02:30pm 30.8 26.7 7.9 24 12.7 W 19 33 10 18 1012.7 1012.1 0.0
21/02:18pm 31.3 27.2 7.7 23 13.1 W 19 44 10 24 1012.7 1012.1 0.0
21/02:00pm 30.2 27.7 8.0 25 12.3 WNW 11 24 6 13 1013.0 1012.4 0.0
21/01:30pm 29.9 26.7 8.3 26 12.0 WSW 15 26 8 14 1013.2 1012.6 0.0
21/01:00pm 29.9 25.3 8.3 26 12.0 WSW 22 41 12 22 1013.5 1012.9 0.0
21/12:30pm 28.6 25.4 8.3 28 11.2 W 15 28 8 15 1013.9 1013.4 0.0
21/12:00pm 27.9 25.0 9.7 32 10.2 WNW 15 26 8 14 1014.3 1013.8 0.0
21/11:30am 27.0 24.1 9.8 34 9.7 NW 15 26 8 14 1014.5 1014.0 0.0
21/11:00am 25.1 23.5 10.2 39 8.3 NNW 9 19 5 10 1014.5 1014.0 0.0
21/10:30am 23.2 22.1 9.9 43 7.3 NW 6 13 3 7 1014.8 1014.3 0.0
21/10:00am 21.6 20.8 11.6 53 5.6 ENE 7 11 4 6 1014.8 1014.3 0.0
21/09:30am 18.9 17.8 11.9 64 3.9 ENE 9 15 5 8 1015.0 1014.5 0.0
21/09:00am 17.3 15.7 12.8 75 2.5 ENE 13 17 7 9 1015.0 1014.5 0.0
21/08:30am 15.6 14.0 15.0 96 0.3 ENE 17 20 9 11 1014.7 1014.2 0.0
21/08:00am 13.5 10.8 13.0 97 0.3 ENE 19 22 10 12 1014.6 1014.1 0.0
21/07:30am 12.8 9.9 12.3 97 0.3 ENE 19 24 10 13 1014.5 1014.0 0.0
21/07:00am 12.3 9.1 11.8 97 0.3 E 20 24 11 13 1014.3 1013.8 0.0
21/06:30am 11.7 8.9 11.2 97 0.3 ESE 17 19 9 10 1014.6 1014.1 0.0
21/06:00am 10.9 8.2 10.4 97 0.3 ESE 15 17 8 9 1014.7 1014.2 0.0
21/05:30am 11.2 8.2 10.7 97 0.3 E 17 17 9 9 1014.5 1014.0 0.0
21/05:00am 11.3 8.3 10.8 97 0.3 ENE 17 19 9 10 1014.4 1013.9 0.0
21/04:30am 11.5 7.7 11.0 97 0.3 ENE 22 22 12 12 1014.2 1013.7 0.0
21/04:00am 11.1 7.1 10.5 96 0.3 ENE 22 24 12 13 1014.0 1013.5 0.0
21/03:30am 11.0 6.6 10.4 96 0.3 ENE 24 26 13 14 1014.1 1013.6 0.0
21/03:00am 11.1 6.7 10.5 96 0.3 ENE 24 26 13 14 1014.5 1014.0 0.0
21/02:30am 11.0 6.9 10.2 95 0.4 ENE 22 24 12 13 1015.1 1014.6 0.0
21/02:00am 11.4 7.4 10.5 94 0.5 ENE 22 24 12 13 1015.5 1015.0 0.0
21/01:30am 11.3 7.3 10.4 94 0.5 ENE 22 22 12 12 1015.9 1015.3 0.0
21/01:00am 11.4 7.7 10.1 92 0.7 E 20 20 11 11 1016.3 1015.7 0.0
21/12:30am 11.8 8.4 10.4 91 0.7 E 19 20 10 11 1016.9 1016.3 0.0
21/12:00am 11.9 8.3 10.5 91 0.7 ENE 20 22 11 12 1017.3 1016.8 0.0
 
Date/Time
EDT
Temp
°C
App
Temp
°C
Dew
Point
Rel
Hum
%
Delta-T
°C
Wind Press
QNH
hPa
Press
MSL
hPa
Rain
since 9 am
mm
Dir
 
Spd
km/h
Gust
km/h
Spd
kts
Gust
kts
20/11:30pm 12.0 8.6 10.4 90 0.8 ENE 19 22 10 12 1017.6 1017.1 0.0
20/11:00pm 12.1 8.4 10.2 88 1.0 ENE 20 22 11 12 1017.7 1017.2 0.0
20/10:30pm 12.4 9.2 10.1 86 1.2 ENE 17 20 9 11 1017.7 1017.2 0.0
20/10:00pm 12.8 9.3 10.3 85 1.3 E 19 20 10 11 1017.9 1017.4 0.0
20/09:30pm 13.2 9.5 10.2 82 1.6 E 20 24 11 13 1017.8 1017.3 0.0
20/09:00pm 13.8 10.6 10.0 78 2.0 E 17 22 9 12 1017.7 1017.2 0.0
20/08:30pm 14.9 11.4 10.3 74 2.4 E 19 22 10 12 1017.6 1017.1 0.0
20/08:00pm 16.0 12.9 10.3 69 3.0 E 17 20 9 11 1017.5 1017.0 0.0
20/07:30pm 17.4 14.4 10.5 64 3.7 E 17 20 9 11 1017.1 1016.6 0.0
20/07:00pm 21.3 18.6 5.6 36 7.9 W 9 17 5 9 1017.0 1016.5 0.0
20/06:30pm 21.5 17.9 5.0 34 8.2 W 13 22 7 12 1016.7 1016.1 0.0
20/06:00pm 21.6 17.8 5.9 36 8.0 WSW 15 24 8 13 1016.5 1015.9 0.0
20/05:30pm 22.4 18.8 6.6 36 8.2 WSW 15 24 8 13 1016.6 1016.0 0.0
20/05:00pm 22.6 18.6 6.8 36 8.2 W 17 28 9 15 1016.8 1016.2 0.0
20/04:30pm 22.1 18.2 7.1 38 7.8 WSW 17 24 9 13 1017.1 1016.6 0.0
20/04:00pm 23.0 19.1 7.1 36 8.3 SW 17 26 9 14 1017.2 1016.7 0.0
20/03:30pm 22.4 18.2 7.4 38 7.9 WSW 19 32 10 17 1017.6 1017.1 0.0
20/03:00pm 21.5 18.1 7.7 41 7.2 WSW 15 24 8 13 1017.8 1017.3 0.0
20/02:30pm 22.5 19.1 9.0 42 7.3 WSW 17 30 9 16 1018.1 1017.6 0.0
20/02:00pm 21.5 17.4 8.7 44 6.8 WSW 20 32 11 17 1018.4 1017.9 0.0
20/01:30pm 20.9 16.8 7.9 43 6.8 WSW 19 32 10 17 1018.4 1017.9 0.0
20/01:00pm 19.3 15.7 8.3 49 5.8 SW 17 30 9 16 1018.6 1018.1 0.0
20/12:30pm 19.3 15.4 8.6 50 5.6 SW 19 30 10 16 1018.8 1018.3 0.0
20/12:00pm 18.1 14.1 8.4 53 5.0 SW 19 30 10 16 1019.1 1018.6 0.0
20/11:30am 17.5 14.0 8.6 56 4.6 WSW 17 33 9 18 1019.1 1018.6 0.0
20/11:00am 16.5 13.4 9.0 61 3.9 WSW 15 24 8 13 1019.2 1018.7 0.0
20/10:30am 16.1 12.2 8.6 61 3.9 WSW 19 32 10 17 1019.3 1018.8 0.0
20/10:00am 14.8 10.9 8.7 67 3.1 W 19 28 10 15 1019.5 1019.0 0.0
20/09:30am 14.0 11.8 9.2 73 2.5 WNW 11 17 6 9 1019.6 1019.1 0.0
20/09:00am 12.4 10.1 9.1 80 1.7 WNW 11 15 6 8 1019.3 1018.8 0.0
20/08:30am 10.7 8.3 8.6 87 1.0 WNW 11 15 6 8 1019.1 1018.6 0.0
20/08:00am 9.5 6.5 7.6 88 0.9 WNW 13 17 7 9 1018.8 1018.3 0.0
20/07:30am 9.0 5.9 7.1 88 0.9 WNW 13 19 7 10 1018.4 1017.9 0.0
20/07:00am 8.9 5.8 7.2 89 0.8 WNW 13 17 7 9 1018.1 1017.6 0.0
20/06:30am 8.4 4.4 6.7 89 0.8 W 17 19 9 10 1018.0 1017.5 0.0
20/06:00am 8.4 4.8 6.9 90 0.7 WNW 15 17 8 9 1017.7 1017.2 0.0
20/05:30am 8.7 5.5 6.8 88 0.9 W 13 15 7 8 1017.6 1017.1 0.0
20/05:00am 9.0 5.9 7.1 88 0.9 W 13 15 7 8 1017.7 1017.2 0.0
20/04:30am 9.1 5.6 7.2 88 0.9 W 15 17 8 9 1017.6 1017.1 0.0
20/04:00am 9.0 5.1 7.0 87 0.9 W 17 19 9 10 1017.7 1017.2 0.0
20/03:30am 9.2 5.3 7.2 87 1.0 W 17 19 9 10 1018.0 1017.5 0.0
20/03:00am 9.3 5.7 6.9 85 1.1 W 15 19 8 10 1018.2 1017.7 0.0
20/02:30am 9.8 6.3 7.2 84 1.2 W 15 17 8 9 1018.3 1017.8 0.0
20/02:00am 10.0 6.5 7.3 83 1.3 W 15 17 8 9 1018.6 1018.1 0.0
20/01:30am 10.4 6.8 6.9 79 1.7 WSW 15 19 8 10 1019.0 1018.5 0.0
20/01:00am 10.6 6.7 6.9 78 1.8 WSW 17 17 9 9 1019.1 1018.6 0.0
20/12:30am 10.8 6.9 7.1 78 1.8 WSW 17 17 9 9 1019.4 1018.9 0.0
20/12:00am 11.1 7.1 6.8 75 2.1 WSW 17 17 9 9 1019.6 1019.1 0.0
 
Date/Time
EDT
Temp
°C
App
Temp
°C
Dew
Point
Rel
Hum
%
Delta-T
°C
Wind Press
QNH
hPa
Press
MSL
hPa
Rain
since 9 am
mm
Dir
 
Spd
km/h
Gust
km/h
Spd
kts
Gust
kts
19/11:30pm 10.8 6.4 6.7 76 2.0 SW 19 22 10 12 1019.7 1019.2 0.0
19/11:00pm 11.4 7.4 6.7 73 2.3 SW 17 20 9 11 1020.1 1019.5 0.0
19/10:30pm 11.5 6.9 6.4 71 2.4 SW 20 24 11 13 1020.1 1019.5 0.0
19/10:00pm 11.8 7.1 6.1 68 2.7 SW 20 22 11 12 1020.1 1019.5 0.0
19/09:30pm 11.7 7.1 5.8 67 2.8 SW 19 20 10 11 1019.9 1019.3 0.0
19/09:00pm 12.1 7.5 5.5 64 3.1 SW 19 24 10 13 1019.9 1019.3 0.0
19/08:30pm 13.4 8.0 4.6 55 4.1 SW 22 28 12 15 1019.7 1019.2 0.0
19/08:00pm 14.6 9.0 5.4 54 4.4 SW 24 32 13 17 1019.4 1018.9 0.0
19/07:30pm 15.4 9.5 5.6 52 4.7 SW 26 32 14 17 1019.1 1018.6 0.0
19/07:00pm 16.1 9.7 5.4 49 5.2 SW 28 35 15 19 1018.7 1018.2 0.0
19/06:30pm 16.7 10.3 5.0 46 5.6 WSW 28 39 15 21 1018.4 1017.9 0.0
19/06:00pm 17.4 11.9 5.7 46 5.7 SW 24 39 13 21 1018.1 1017.6 0.0
19/05:30pm 17.4 11.9 5.7 46 5.8 WSW 24 33 13 18 1018.1 1017.6 0.0
19/05:00pm 17.9 11.2 5.5 44 6.1 SW 30 41 16 22 1017.9 1017.4 0.0
19/04:30pm 18.3 12.1 4.5 40 6.7 WSW 26 39 14 21 1017.7 1017.2 0.0
19/04:00pm 18.1 11.9 4.3 40 6.6 WSW 26 43 14 23 1017.6 1017.1 0.0
19/03:30pm 17.2 11.0 4.2 42 6.2 WSW 26 41 14 22 1017.8 1017.3 0.0
19/03:00pm 18.5 13.1 4.3 39 6.8 SW 22 35 12 19 1017.7 1017.2 0.0
19/02:30pm 19.1 13.2 4.1 37 7.2 SW 24 35 13 19 1017.5 1017.0 0.0
19/02:00pm 19.1 12.8 5.6 41 6.7 SW 28 39 15 21 1017.6 1017.1 0.0
19/01:30pm 17.0 10.7 3.7 41 6.3 WSW 26 41 14 22 1017.5 1017.0 0.0
19/01:00pm 17.6 11.5 4.9 43 6.1 WSW 26 37 14 20 1017.6 1017.1 0.0
19/12:30pm 17.3 11.2 4.9 44 6.0 SW 26 37 14 20 1017.6 1017.1 0.0
19/12:00pm 15.8 11.3 6.3 53 4.7 SW 19 28 10 15 1017.9 1017.4 0.0
19/11:30am 14.7 9.7 4.7 51 4.7 WSW 20 32 11 17 1017.9 1017.4 0.0
19/11:00am 13.2 8.2 6.5 64 3.2 WSW 22 35 12 19 1017.9 1017.4 0.0
19/10:30am 13.9 9.1 5.8 58 3.9 WSW 20 30 11 16 1017.8 1017.3 0.0
19/10:00am 12.8 7.6 7.3 69 2.7 SW 24 30 13 16 1017.6 1017.1 0.0
19/09:30am 12.6 8.1 6.9 68 2.8 SW 20 28 11 15 1017.5 1017.0 0.0

Other Formats:

Comma delimited format used in spreadsheet applications
http://www.bom.gov.au/fwo/IDV60801/IDV60801.95845.axf

JavaScript Object Notation format (JSON) in row-major order
http://www.bom.gov.au/fwo/IDV60801/IDV60801.95845.json